sensor_id;sensor_type;location;lat;lon;timestamp;pressure;altitude;pressure_sealevel;temperature;humidity
65276;BME280;51875;49.994;14.052;2023-08-21T00:00:21;98805.41;;;21.80;100.00
65276;BME280;51875;49.994;14.052;2023-08-21T00:01:58;98806.28;;;21.93;100.00
65276;BME280;51875;49.994;14.052;2023-08-21T00:03:14;98803.81;;;21.90;100.00
65276;BME280;51875;49.994;14.052;2023-08-21T00:04:30;98807.75;;;21.97;100.00
65276;BME280;51875;49.994;14.052;2023-08-21T00:05:45;98811.59;;;21.80;100.00
65276;BME280;51875;49.994;14.052;2023-08-21T00:07:01;98809.19;;;21.63;100.00
65276;BME280;51875;49.994;14.052;2023-08-21T00:08:16;98805.56;;;21.64;100.00
65276;BME280;51875;49.994;14.052;2023-08-21T00:09:32;98801.13;;;21.77;100.00
65276;BME280;51875;49.994;14.052;2023-08-21T00:10:47;98805.41;;;21.67;100.00
65276;BME280;51875;49.994;14.052;2023-08-21T00:12:03;98801.91;;;21.79;100.00
65276;BME280;51875;49.994;14.052;2023-08-21T00:13:19;98807.84;;;21.70;100.00
65276;BME280;51875;49.994;14.052;2023-08-21T00:14:35;98816.88;;;21.54;100.00
65276;BME280;51875;49.994;14.052;2023-08-21T00:15:50;98811.16;;;21.06;100.00
65276;BME280;51875;49.994;14.052;2023-08-21T00:17:07;98795.50;;;21.28;100.00
65276;BME280;51875;49.994;14.052;2023-08-21T00:18:23;98798.66;;;21.21;100.00
65276;BME280;51875;49.994;14.052;2023-08-21T00:19:38;98802.88;;;21.38;100.00
65276;BME280;51875;49.994;14.052;2023-08-21T00:20:54;98803.25;;;21.19;100.00
65276;BME280;51875;49.994;14.052;2023-08-21T00:22:09;98804.13;;;21.32;100.00
65276;BME280;51875;49.994;14.052;2023-08-21T00:23:25;98801.19;;;21.50;100.00
65276;BME280;51875;49.994;14.052;2023-08-21T00:24:40;98795.56;;;21.54;100.00
65276;BME280;51875;49.994;14.052;2023-08-21T00:25:56;98798.59;;;21.35;100.00
65276;BME280;51875;49.994;14.052;2023-08-21T00:27:12;98798.09;;;21.43;100.00
65276;BME280;51875;49.994;14.052;2023-08-21T00:28:27;98794.81;;;21.52;100.00
65276;BME280;51875;49.994;14.052;2023-08-21T00:29:48;98798.09;;;21.43;100.00
65276;BME280;51875;49.994;14.052;2023-08-21T00:31:04;98795.00;;;21.49;100.00
65276;BME280;51875;49.994;14.052;2023-08-21T00:32:20;98798.53;;;21.63;100.00
65276;BME280;51875;49.994;14.052;2023-08-21T00:33:35;98792.47;;;21.61;100.00
65276;BME280;51875;49.994;14.052;2023-08-21T00:34:52;98797.72;;;21.75;100.00
65276;BME280;51875;49.994;14.052;2023-08-21T00:36:08;98793.41;;;21.59;100.00
65276;BME280;51875;49.994;14.052;2023-08-21T00:37:23;98794.22;;;21.34;100.00
65276;BME280;51875;49.994;14.052;2023-08-21T00:38:39;98799.44;;;21.36;100.00
65276;BME280;51875;49.994;14.052;2023-08-21T00:39:55;98796.78;;;21.36;100.00
65276;BME280;51875;49.994;14.052;2023-08-21T00:41:11;98794.69;;;21.41;100.00
65276;BME280;51875;49.994;14.052;2023-08-21T00:42:27;98788.91;;;21.47;100.00
65276;BME280;51875;49.994;14.052;2023-08-21T00:43:43;98789.13;;;21.31;100.00
65276;BME280;51875;49.994;14.052;2023-08-21T00:44:58;98784.31;;;21.23;100.00
65276;BME280;51875;49.994;14.052;2023-08-21T00:46:14;98788.22;;;21.17;100.00
65276;BME280;51875;49.994;14.052;2023-08-21T00:47:30;98779.59;;;21.14;100.00
65276;BME280;51875;49.994;14.052;2023-08-21T00:48:46;98778.63;;;21.15;100.00
65276;BME280;51875;49.994;14.052;2023-08-21T00:50:02;98780.78;;;21.23;100.00
65276;BME280;51875;49.994;14.052;2023-08-21T00:51:19;98781.22;;;21.29;100.00
65276;BME280;51875;49.994;14.052;2023-08-21T00:52:35;98779.72;;;21.25;100.00
65276;BME280;51875;49.994;14.052;2023-08-21T00:53:51;98777.59;;;21.30;100.00
65276;BME280;51875;49.994;14.052;2023-08-21T00:55:08;98777.94;;;21.39;100.00
65276;BME280;51875;49.994;14.052;2023-08-21T00:56:24;98785.28;;;21.48;100.00
65276;BME280;51875;49.994;14.052;2023-08-21T00:57:39;98783.81;;;21.57;100.00
65276;BME280;51875;49.994;14.052;2023-08-21T00:58:55;98778.47;;;21.57;100.00
65276;BME280;51875;49.994;14.052;2023-08-21T01:00:12;98778.34;;;21.33;100.00
65276;BME280;51875;49.994;14.052;2023-08-21T01:01:28;98793.78;;;21.27;100.00
65276;BME280;51875;49.994;14.052;2023-08-21T01:02:43;98783.13;;;21.27;100.00
65276;BME280;51875;49.994;14.052;2023-08-21T01:03:59;98784.91;;;21.14;100.00
65276;BME280;51875;49.994;14.052;2023-08-21T01:05:18;98791.66;;;21.33;100.00
65276;BME280;51875;49.994;14.052;2023-08-21T01:06:33;98794.69;;;21.41;100.00
65276;BME280;51875;49.994;14.052;2023-08-21T01:11:34;98796.81;;;21.62;100.00
65276;BME280;51875;49.994;14.052;2023-08-21T01:12:51;98799.00;;;21.69;100.00
65276;BME280;51875;49.994;14.052;2023-08-21T01:14:28;98803.28;;;21.72;100.00
65276;BME280;51875;49.994;14.052;2023-08-21T01:15:45;98801.56;;;21.71;100.00
65276;BME280;51875;49.994;14.052;2023-08-21T01:17:03;98804.00;;;21.74;100.00
65276;BME280;51875;49.994;14.052;2023-08-21T01:18:20;98807.44;;;21.76;100.00
65276;BME280;51875;49.994;14.052;2023-08-21T01:19:40;98799.56;;;21.75;100.00
65276;BME280;51875;49.994;14.052;2023-08-21T01:20:57;98803.38;;;21.70;100.00
65276;BME280;51875;49.994;14.052;2023-08-21T01:22:13;98798.91;;;21.71;100.00
65276;BME280;51875;49.994;14.052;2023-08-21T01:23:35;98805.19;;;21.70;100.00
65276;BME280;51875;49.994;14.052;2023-08-21T01:24:51;98800.09;;;21.67;100.00
65276;BME280;51875;49.994;14.052;2023-08-21T01:26:07;98802.06;;;21.63;100.00
65276;BME280;51875;49.994;14.052;2023-08-21T01:27:22;98806.75;;;21.59;100.00
65276;BME280;51875;49.994;14.052;2023-08-21T01:28:38;98808.94;;;21.40;100.00
65276;BME280;51875;49.994;14.052;2023-08-21T01:29:54;98807.44;;;21.36;100.00
65276;BME280;51875;49.994;14.052;2023-08-21T01:31:17;98805.50;;;20.97;100.00
65276;BME280;51875;49.994;14.052;2023-08-21T01:33:59;98802.44;;;21.31;100.00
65276;BME280;51875;49.994;14.052;2023-08-21T01:35:17;98809.97;;;21.24;100.00
65276;BME280;51875;49.994;14.052;2023-08-21T01:36:34;98805.41;;;20.99;100.00
65276;BME280;51875;49.994;14.052;2023-08-21T01:37:51;98808.75;;;20.88;100.00
65276;BME280;51875;49.994;14.052;2023-08-21T01:39:07;98807.00;;;21.01;100.00
65276;BME280;51875;49.994;14.052;2023-08-21T01:40:23;98804.34;;;21.01;100.00
65276;BME280;51875;49.994;14.052;2023-08-21T01:41:41;98808.75;;;20.88;100.00
65276;BME280;51875;49.994;14.052;2023-08-21T01:42:57;98811.00;;;20.94;100.00
65276;BME280;51875;49.994;14.052;2023-08-21T01:44:12;98809.19;;;20.82;100.00
65276;BME280;51875;49.994;14.052;2023-08-21T01:45:28;98808.97;;;20.85;100.00
65276;BME280;51875;49.994;14.052;2023-08-21T01:46:44;98812.28;;;20.74;100.00
65276;BME280;51875;49.994;14.052;2023-08-21T01:47:59;98802.44;;;20.62;100.00
65276;BME280;51875;49.994;14.052;2023-08-21T01:49:14;98801.53;;;20.75;100.00
65276;BME280;51875;49.994;14.052;2023-08-21T01:50:30;98809.34;;;20.64;100.00
65276;BME280;51875;49.994;14.052;2023-08-21T01:51:46;98810.06;;;20.39;100.00
65276;BME280;51875;49.994;14.052;2023-08-21T01:53:01;98800.91;;;20.57;100.00
65276;BME280;51875;49.994;14.052;2023-08-21T01:54:17;98799.00;;;20.59;100.00
65276;BME280;51875;49.994;14.052;2023-08-21T01:55:33;98800.38;;;20.38;100.00
65276;BME280;51875;49.994;14.052;2023-08-21T01:56:48;98798.56;;;20.38;100.00
65276;BME280;51875;49.994;14.052;2023-08-21T01:58:04;98792.75;;;20.46;100.00
65276;BME280;51875;49.994;14.052;2023-08-21T01:59:19;98796.84;;;20.37;100.00
65276;BME280;51875;49.994;14.052;2023-08-21T02:00:35;98795.25;;;20.49;100.00
65276;BME280;51875;49.994;14.052;2023-08-21T02:01:51;98782.00;;;20.62;100.00
65276;BME280;51875;49.994;14.052;2023-08-21T02:03:06;98786.06;;;20.82;100.00
65276;BME280;51875;49.994;14.052;2023-08-21T02:04:22;98785.47;;;20.92;100.00
65276;BME280;51875;49.994;14.052;2023-08-21T02:05:38;98784.72;;;20.90;100.00
65276;BME280;51875;49.994;14.052;2023-08-21T02:06:55;98786.72;;;20.86;100.00
65276;BME280;51875;49.994;14.052;2023-08-21T02:08:13;98778.00;;;20.84;100.00
65276;BME280;51875;49.994;14.052;2023-08-21T02:09:29;98782.13;;;20.60;100.00
65276;BME280;51875;49.994;14.052;2023-08-21T02:10:51;98785.19;;;20.40;100.00
65276;BME280;51875;49.994;14.052;2023-08-21T02:12:07;98784.09;;;20.57;100.00
65276;BME280;51875;49.994;14.052;2023-08-21T02:13:22;98785.72;;;20.45;100.00
65276;BME280;51875;49.994;14.052;2023-08-21T02:14:38;98795.63;;;20.28;100.00
65276;BME280;51875;49.994;14.052;2023-08-21T02:15:53;98795.25;;;20.35;100.00
65276;BME280;51875;49.994;14.052;2023-08-21T02:17:09;98799.50;;;20.37;100.00
65276;BME280;51875;49.994;14.052;2023-08-21T02:18:24;98796.84;;;20.37;100.00
65276;BME280;51875;49.994;14.052;2023-08-21T02:19:40;98797.34;;;20.29;100.00
65276;BME280;51875;49.994;14.052;2023-08-21T02:20:56;98793.63;;;20.32;100.00
65276;BME280;51875;49.994;14.052;2023-08-21T02:22:11;98797.59;;;20.39;100.00
65276;BME280;51875;49.994;14.052;2023-08-21T02:23:27;98794.03;;;20.40;100.00
65276;BME280;51875;49.994;14.052;2023-08-21T02:24:42;98797.22;;;20.45;100.00
65276;BME280;51875;49.994;14.052;2023-08-21T02:25:58;98805.00;;;20.49;100.00
65276;BME280;51875;49.994;14.052;2023-08-21T02:27:14;98804.81;;;20.37;100.00
65276;BME280;51875;49.994;14.052;2023-08-21T02:28:29;98795.91;;;20.38;100.00
65276;BME280;51875;49.994;14.052;2023-08-21T02:29:44;98802.47;;;20.47;100.00
65276;BME280;51875;49.994;14.052;2023-08-21T02:31:00;98805.97;;;20.48;100.00
65276;BME280;51875;49.994;14.052;2023-08-21T02:32:16;98796.53;;;20.56;100.00
65276;BME280;51875;49.994;14.052;2023-08-21T02:33:31;98798.72;;;20.64;100.00
65276;BME280;51875;49.994;14.052;2023-08-21T02:34:47;98794.13;;;20.66;100.00
65276;BME280;51875;49.994;14.052;2023-08-21T02:36:03;98796.50;;;20.71;100.00
65276;BME280;51875;49.994;14.052;2023-08-21T02:37:19;98790.97;;;20.74;100.00
65276;BME280;51875;49.994;14.052;2023-08-21T02:38:35;98789.09;;;20.76;100.00
65276;BME280;51875;49.994;14.052;2023-08-21T02:39:50;98789.00;;;20.78;100.00
65276;BME280;51875;49.994;14.052;2023-08-21T02:41:06;98793.56;;;20.75;100.00
65276;BME280;51875;49.994;14.052;2023-08-21T02:42:22;98793.56;;;20.75;100.00
65276;BME280;51875;49.994;14.052;2023-08-21T02:43:38;98796.50;;;20.71;100.00
65276;BME280;51875;49.994;14.052;2023-08-21T02:44:53;98790.53;;;20.67;100.00
65276;BME280;51875;49.994;14.052;2023-08-21T02:46:09;98791.31;;;20.69;100.00
65276;BME280;51875;49.994;14.052;2023-08-21T02:47:24;98796.25;;;20.61;100.00
65276;BME280;51875;49.994;14.052;2023-08-21T02:48:40;98790.88;;;20.48;100.00
65276;BME280;51875;49.994;14.052;2023-08-21T02:49:55;98792.75;;;20.46;100.00
65276;BME280;51875;49.994;14.052;2023-08-21T02:51:11;98781.94;;;20.49;100.00
65276;BME280;51875;49.994;14.052;2023-08-21T02:52:26;98802.91;;;20.39;100.00
65276;BME280;51875;49.994;14.052;2023-08-21T02:53:42;98796.69;;;20.26;100.00
65276;BME280;51875;49.994;14.052;2023-08-21T02:54:58;98793.38;;;20.22;100.00
65276;BME280;51875;49.994;14.052;2023-08-21T02:56:14;98794.13;;;20.24;100.00
65276;BME280;51875;49.994;14.052;2023-08-21T02:57:29;98792.22;;;20.26;100.00
65276;BME280;51875;49.994;14.052;2023-08-21T02:58:45;98792.50;;;20.22;100.00
65276;BME280;51875;49.994;14.052;2023-08-21T03:00:00;98796.97;;;20.07;100.00
65276;BME280;51875;49.994;14.052;2023-08-21T03:01:16;98797.53;;;19.97;100.00
65276;BME280;51875;49.994;14.052;2023-08-21T03:02:32;98798.41;;;19.98;100.00
65276;BME280;51875;49.994;14.052;2023-08-21T03:03:48;98802.28;;;20.07;100.00
65276;BME280;51875;49.994;14.052;2023-08-21T03:05:05;98797.44;;;20.13;100.00
65276;BME280;51875;49.994;14.052;2023-08-21T03:06:22;98800.47;;;20.22;100.00
65276;BME280;51875;49.994;14.052;2023-08-21T03:07:38;98803.59;;;20.28;100.00
65276;BME280;51875;49.994;14.052;2023-08-21T03:08:54;98802.09;;;20.24;100.00
65276;BME280;51875;49.994;14.052;2023-08-21T03:10:09;98802.75;;;20.28;100.00
65276;BME280;51875;49.994;14.052;2023-08-21T03:11:25;98799.91;;;20.16;100.00
65276;BME280;51875;49.994;14.052;2023-08-21T03:12:41;98796.66;;;20.11;100.00
65276;BME280;51875;49.994;14.052;2023-08-21T03:13:56;98804.84;;;20.08;100.00
65276;BME280;51875;49.994;14.052;2023-08-21T03:15:12;98804.28;;;20.03;100.00
65276;BME280;51875;49.994;14.052;2023-08-21T03:16:27;98811.69;;;19.98;100.00
65276;BME280;51875;49.994;14.052;2023-08-21T03:17:43;98802.66;;;20.00;100.00
65276;BME280;51875;49.994;14.052;2023-08-21T03:18:59;98807.59;;;20.07;100.00
65276;BME280;51875;49.994;14.052;2023-08-21T03:20:15;98804.34;;;20.16;100.00
65276;BME280;51875;49.994;14.052;2023-08-21T03:21:32;98803.59;;;20.14;100.00
65276;BME280;51875;49.994;14.052;2023-08-21T03:22:48;98808.84;;;20.30;100.00
65276;BME280;51875;49.994;14.052;2023-08-21T03:24:05;98810.81;;;20.41;100.00
65276;BME280;51875;49.994;14.052;2023-08-21T03:25:21;98813.38;;;20.42;100.00
65276;BME280;51875;49.994;14.052;2023-08-21T03:26:37;98803.72;;;20.41;100.00
65276;BME280;51875;49.994;14.052;2023-08-21T03:27:52;98811.69;;;20.41;100.00
65276;BME280;51875;49.994;14.052;2023-08-21T03:29:08;98807.31;;;20.40;100.00
65276;BME280;51875;49.994;14.052;2023-08-21T03:30:23;98811.38;;;20.31;100.00
65276;BME280;51875;49.994;14.052;2023-08-21T03:31:39;98810.53;;;20.31;100.00
65276;BME280;51875;49.994;14.052;2023-08-21T03:32:54;98813.19;;;20.31;100.00
65276;BME280;51875;49.994;14.052;2023-08-21T03:34:10;98816.53;;;20.35;100.00
65276;BME280;51875;49.994;14.052;2023-08-21T03:35:25;98815.88;;;20.31;100.00
65276;BME280;51875;49.994;14.052;2023-08-21T03:36:41;98811.84;;;20.24;100.00
65276;BME280;51875;49.994;14.052;2023-08-21T03:37:57;98818.31;;;20.20;100.00
65276;BME280;51875;49.994;14.052;2023-08-21T03:39:12;98821.84;;;20.20;100.00
65276;BME280;51875;49.994;14.052;2023-08-21T03:40:28;98822.31;;;20.27;100.00
65276;BME280;51875;49.994;14.052;2023-08-21T03:41:43;98816.63;;;20.18;100.00
65276;BME280;51875;49.994;14.052;2023-08-21T03:42:59;98821.38;;;20.28;100.00
65276;BME280;51875;49.994;14.052;2023-08-21T03:44:14;98820.31;;;20.30;100.00
65276;BME280;51875;49.994;14.052;2023-08-21T03:45:30;98819.47;;;20.30;100.00
65276;BME280;51875;49.994;14.052;2023-08-21T03:46:45;98818.72;;;20.28;100.00
65276;BME280;51875;49.994;14.052;2023-08-21T03:48:01;98811.50;;;20.30;100.00
65276;BME280;51875;49.994;14.052;2023-08-21T03:49:16;98819.47;;;20.30;100.00
65276;BME280;51875;49.994;14.052;2023-08-21T03:50:32;98820.50;;;20.27;100.00
65276;BME280;51875;49.994;14.052;2023-08-21T03:51:48;98813.97;;;20.18;100.00
65276;BME280;51875;49.994;14.052;2023-08-21T03:53:03;98823.16;;;20.13;100.00
65276;BME280;51875;49.994;14.052;2023-08-21T03:54:19;98828.94;;;20.05;100.00
65276;BME280;51875;49.994;14.052;2023-08-21T03:55:34;98828.28;;;20.01;100.00
65276;BME280;51875;49.994;14.052;2023-08-21T03:56:50;98827.25;;;20.04;100.00
65276;BME280;51875;49.994;14.052;2023-08-21T03:58:05;98827.31;;;20.02;100.00
65276;BME280;51875;49.994;14.052;2023-08-21T03:59:21;98821.84;;;20.06;100.00
65276;BME280;51875;49.994;14.052;2023-08-21T04:00:38;98819.81;;;19.95;100.00
65276;BME280;51875;49.994;14.052;2023-08-21T04:01:53;98817.00;;;19.98;100.00
65276;BME280;51875;49.994;14.052;2023-08-21T04:03:09;98823.09;;;19.84;100.00
65276;BME280;51875;49.994;14.052;2023-08-21T04:04:25;98820.69;;;19.95;100.00
65276;BME280;51875;49.994;14.052;2023-08-21T04:05:40;98821.44;;;19.97;100.00
65276;BME280;51875;49.994;14.052;2023-08-21T04:06:56;98822.81;;;19.74;100.00
65276;BME280;51875;49.994;14.052;2023-08-21T04:08:11;98819.97;;;19.77;100.00
65276;BME280;51875;49.994;14.052;2023-08-21T04:09:27;98815.59;;;19.76;100.00
65276;BME280;51875;49.994;14.052;2023-08-21T04:10:42;98819.56;;;19.83;100.00
65276;BME280;51875;49.994;14.052;2023-08-21T04:11:58;98821.72;;;19.93;100.00
65276;BME280;51875;49.994;14.052;2023-08-21T04:13:13;98823.91;;;20.00;100.00
65276;BME280;51875;49.994;14.052;2023-08-21T04:14:29;98817.59;;;19.87;100.00
65276;BME280;51875;49.994;14.052;2023-08-21T04:15:45;98818.78;;;19.97;100.00
65276;BME280;51875;49.994;14.052;2023-08-21T04:17:01;98823.53;;;19.92;100.00
65276;BME280;51875;49.994;14.052;2023-08-21T04:18:16;98822.06;;;19.86;100.00
65276;BME280;51875;49.994;14.052;2023-08-21T04:19:32;98819.47;;;20.01;100.00
65276;BME280;51875;49.994;14.052;2023-08-21T04:20:49;98824.19;;;20.10;100.00
65276;BME280;51875;49.994;14.052;2023-08-21T04:22:05;98825.63;;;20.16;100.00
65276;BME280;51875;49.994;14.052;2023-08-21T04:23:20;98829.16;;;20.16;100.00
65276;BME280;51875;49.994;14.052;2023-08-21T04:24:36;98830.47;;;20.24;100.00
65276;BME280;51875;49.994;14.052;2023-08-21T04:25:51;98833.59;;;20.30;100.00
65276;BME280;51875;49.994;14.052;2023-08-21T04:27:07;98823.84;;;20.31;100.00
65276;BME280;51875;49.994;14.052;2023-08-21T04:28:22;98828.19;;;20.03;100.00
65276;BME280;51875;49.994;14.052;2023-08-21T04:29:38;98824.19;;;20.10;100.00
65276;BME280;51875;49.994;14.052;2023-08-21T04:30:54;98822.41;;;20.11;100.00
65276;BME280;51875;49.994;14.052;2023-08-21T04:32:10;98828.13;;;20.04;100.00
65276;BME280;51875;49.994;14.052;2023-08-21T04:33:28;98826.69;;;20.13;100.00
65276;BME280;51875;49.994;14.052;2023-08-21T04:34:43;98830.56;;;20.08;100.00
65276;BME280;51875;49.994;14.052;2023-08-21T04:35:59;98824.69;;;20.17;100.00
65276;BME280;51875;49.994;14.052;2023-08-21T04:37:15;98831.25;;;20.26;100.00
65276;BME280;51875;49.994;14.052;2023-08-21T04:38:30;98832.56;;;20.04;100.00
65276;BME280;51875;49.994;14.052;2023-08-21T04:39:46;98826.28;;;20.05;100.00
65276;BME280;51875;49.994;14.052;2023-08-21T04:41:08;98829.22;;;20.00;100.00
65276;BME280;51875;49.994;14.052;2023-08-21T04:42:24;98822.69;;;20.06;100.00
65276;BME280;51875;49.994;14.052;2023-08-21T04:43:40;98821.06;;;20.18;100.00
65276;BME280;51875;49.994;14.052;2023-08-21T04:44:55;98819.34;;;20.31;100.00
65276;BME280;51875;49.994;14.052;2023-08-21T04:46:10;98821.66;;;20.23;100.00
65276;BME280;51875;49.994;14.052;2023-08-21T04:47:27;98822.13;;;20.15;100.00
65276;BME280;51875;49.994;14.052;2023-08-21T04:48:42;98817.00;;;20.12;100.00
65276;BME280;51875;49.994;14.052;2023-08-21T04:49:58;98823.25;;;20.11;100.00
65276;BME280;51875;49.994;14.052;2023-08-21T04:51:13;98815.38;;;20.24;100.00
65276;BME280;51875;49.994;14.052;2023-08-21T04:52:30;98825.34;;;20.35;100.00
65276;BME280;51875;49.994;14.052;2023-08-21T04:53:46;98831.72;;;20.47;100.00
65276;BME280;51875;49.994;14.052;2023-08-21T04:55:01;98824.50;;;20.49;100.00
65276;BME280;51875;49.994;14.052;2023-08-21T04:56:17;98827.63;;;20.56;100.00
65276;BME280;51875;49.994;14.052;2023-08-21T04:57:32;98832.66;;;20.60;100.00
65276;BME280;51875;49.994;14.052;2023-08-21T04:58:48;98821.63;;;20.67;100.00
65276;BME280;51875;49.994;14.052;2023-08-21T05:00:03;98831.69;;;20.76;100.00
65276;BME280;51875;49.994;14.052;2023-08-21T05:01:19;98819.41;;;20.73;100.00
65276;BME280;51875;49.994;14.052;2023-08-21T05:02:35;98837.50;;;20.68;100.00
65276;BME280;51875;49.994;14.052;2023-08-21T05:03:51;98832.91;;;20.70;100.00
65276;BME280;51875;49.994;14.052;2023-08-21T05:05:06;98836.63;;;20.68;100.00
65276;BME280;51875;49.994;14.052;2023-08-21T05:06:23;98827.84;;;20.80;100.00
65276;BME280;51875;49.994;14.052;2023-08-21T05:07:39;98828.91;;;20.78;100.00
65276;BME280;51875;49.994;14.052;2023-08-21T05:08:54;98835.84;;;20.80;100.00
65276;BME280;51875;49.994;14.052;2023-08-21T05:10:10;98834.84;;;20.83;100.00
65276;BME280;51875;49.994;14.052;2023-08-21T05:11:26;98830.72;;;20.92;100.00
65276;BME280;51875;49.994;14.052;2023-08-21T05:12:41;98833.47;;;20.90;100.00
65276;BME280;51875;49.994;14.052;2023-08-21T05:13:57;98833.09;;;20.96;100.00
65276;BME280;51875;49.994;14.052;2023-08-21T05:15:13;98836.63;;;20.82;100.00
65276;BME280;51875;49.994;14.052;2023-08-21T05:16:29;98837.50;;;20.83;100.00
65276;BME280;51875;49.994;14.052;2023-08-21T05:17:45;98839.94;;;20.86;100.00
65276;BME280;51875;49.994;14.052;2023-08-21T05:19:01;98850.88;;;20.81;100.00
65276;BME280;51875;49.994;14.052;2023-08-21T05:20:16;98837.63;;;20.94;100.00
65276;BME280;51875;49.994;14.052;2023-08-21T05:21:32;98847.16;;;20.98;100.00
65276;BME280;51875;49.994;14.052;2023-08-21T05:22:48;98839.25;;;20.97;100.00
65276;BME280;51875;49.994;14.052;2023-08-21T05:24:04;98849.66;;;21.14;100.00
65276;BME280;51875;49.994;14.052;2023-08-21T05:25:19;98841.47;;;21.17;100.00
65276;BME280;51875;49.994;14.052;2023-08-21T05:26:37;98844.44;;;21.13;100.00
65276;BME280;51875;49.994;14.052;2023-08-21T05:27:53;98852.97;;;21.18;100.00
65276;BME280;51875;49.994;14.052;2023-08-21T05:29:08;98849.34;;;21.19;100.00
65276;BME280;51875;49.994;14.052;2023-08-21T05:30:25;98849.19;;;21.08;100.00
65276;BME280;51875;49.994;14.052;2023-08-21T05:31:40;98842.13;;;21.21;100.00
65276;BME280;51875;49.994;14.052;2023-08-21T05:32:56;98847.09;;;21.13;100.00
65276;BME280;51875;49.994;14.052;2023-08-21T05:34:11;98854.00;;;21.15;100.00
65276;BME280;51875;49.994;14.052;2023-08-21T05:35:27;98856.94;;;21.25;100.00
65276;BME280;51875;49.994;14.052;2023-08-21T05:36:42;98852.75;;;21.21;100.00
65276;BME280;51875;49.994;14.052;2023-08-21T05:37:58;98846.19;;;21.27;100.00
65276;BME280;51875;49.994;14.052;2023-08-21T05:39:14;98847.19;;;21.39;100.00
65276;BME280;51875;49.994;14.052;2023-08-21T05:40:29;98847.53;;;21.47;100.00
65276;BME280;51875;49.994;14.052;2023-08-21T05:41:45;98852.53;;;21.39;100.00
65276;BME280;51875;49.994;14.052;2023-08-21T05:43:00;98854.41;;;21.37;100.00
65276;BME280;51875;49.994;14.052;2023-08-21T05:44:16;98856.91;;;21.53;100.00
65276;BME280;51875;49.994;14.052;2023-08-21T05:45:31;98854.69;;;21.59;100.00
65276;BME280;51875;49.994;14.052;2023-08-21T05:46:47;98852.84;;;21.47;100.00
65276;BME280;51875;49.994;14.052;2023-08-21T05:48:03;98852.31;;;21.42;100.00
65276;BME280;51875;49.994;14.052;2023-08-21T05:49:19;98847.31;;;21.50;100.00
65276;BME280;51875;49.994;14.052;2023-08-21T05:50:34;98849.22;;;21.48;100.00
65276;BME280;51875;49.994;14.052;2023-08-21T05:51:51;98846.47;;;21.50;100.00
65276;BME280;51875;49.994;14.052;2023-08-21T05:53:08;98845.09;;;21.57;100.00
65276;BME280;51875;49.994;14.052;2023-08-21T05:54:27;98849.88;;;21.39;100.00
65276;BME280;51875;49.994;14.052;2023-08-21T05:55:43;98848.69;;;21.43;100.00
65276;BME280;51875;49.994;14.052;2023-08-21T05:56:58;98851.75;;;21.37;100.00
65276;BME280;51875;49.994;14.052;2023-08-21T05:58:14;98856.25;;;21.49;100.00
65276;BME280;51875;49.994;14.052;2023-08-21T05:59:31;98863.34;;;21.36;100.00
65276;BME280;51875;49.994;14.052;2023-08-21T06:00:47;98863.72;;;21.44;100.00
65276;BME280;51875;49.994;14.052;2023-08-21T06:02:03;98863.22;;;21.79;100.00
65276;BME280;51875;49.994;14.052;2023-08-21T06:03:18;98865.22;;;21.48;100.00
65276;BME280;51875;49.994;14.052;2023-08-21T06:04:34;98863.13;;;21.53;100.00
65276;BME280;51875;49.994;14.052;2023-08-21T06:05:49;98865.00;;;21.66;100.00
65276;BME280;51875;49.994;14.052;2023-08-21T06:07:05;98851.47;;;21.69;100.00
65276;BME280;51875;49.994;14.052;2023-08-21T06:08:21;98856.38;;;22.01;100.00
65276;BME280;51875;49.994;14.052;2023-08-21T06:09:36;98860.88;;;22.13;100.00
65276;BME280;51875;49.994;14.052;2023-08-21T06:10:52;98860.44;;;22.20;100.00
65276;BME280;51875;49.994;14.052;2023-08-21T06:12:08;98857.47;;;22.37;100.00
65276;BME280;51875;49.994;14.052;2023-08-21T06:13:25;98861.72;;;22.27;100.00
65276;BME280;51875;49.994;14.052;2023-08-21T06:14:40;98858.84;;;22.30;100.00
65276;BME280;51875;49.994;14.052;2023-08-21T06:15:56;98857.88;;;22.44;100.00
65276;BME280;51875;49.994;14.052;2023-08-21T06:17:11;98865.91;;;22.57;100.00
65276;BME280;51875;49.994;14.052;2023-08-21T06:18:27;98864.19;;;22.56;100.00
65276;BME280;51875;49.994;14.052;2023-08-21T06:19:43;98864.50;;;22.64;100.00
65276;BME280;51875;49.994;14.052;2023-08-21T06:20:58;98864.59;;;22.63;100.00
65276;BME280;51875;49.994;14.052;2023-08-21T06:22:14;98871.00;;;22.60;100.00
65276;BME280;51875;49.994;14.052;2023-08-21T06:23:30;98866.75;;;22.57;100.00
65276;BME280;51875;49.994;14.052;2023-08-21T06:24:46;98874.91;;;22.93;100.00
65276;BME280;51875;49.994;14.052;2023-08-21T06:26:01;98870.81;;;23.00;100.00
65276;BME280;51875;49.994;14.052;2023-08-21T06:27:17;98873.28;;;22.91;100.00
65276;BME280;51875;49.994;14.052;2023-08-21T06:28:33;98877.91;;;22.89;100.00
65276;BME280;51875;49.994;14.052;2023-08-21T06:29:48;98876.28;;;22.99;100.00
65276;BME280;51875;49.994;14.052;2023-08-21T06:31:04;98876.69;;;23.06;100.00
65276;BME280;51875;49.994;14.052;2023-08-21T06:32:22;98876.44;;;23.09;100.00
65276;BME280;51875;49.994;14.052;2023-08-21T06:33:38;98875.59;;;23.08;100.00
65276;BME280;51875;49.994;14.052;2023-08-21T06:34:53;98870.56;;;23.41;100.00
65276;BME280;51875;49.994;14.052;2023-08-21T06:36:09;98869.41;;;23.56;100.00
65276;BME280;51875;49.994;14.052;2023-08-21T06:37:24;98874.72;;;23.69;100.00